Terminal Aerodrome Forecast
Issued by NWS

Home | Current Version | Previous Version | Text Only | Print | Product List | Glossary On
Versions: 1 2 3 4 5 6 7 8 9 10 11 12 13 14 15 16 17 18 19 20 21 22 23 24
000
FTAK31 PAJN 310141 AAA
TAFAPG
TAF AMD
PAPG 310141Z 3102/3124 17011G18KT P6SM -SHRA BKN035 OVC050
     FM310400 21007KT P6SM -SHRA BKN040 OVC060
     FM310900 21007KT 5SM -SHRA BR BKN020 OVC050
     FM311800 21007KT 6SM -SHRA SCT025 OVC050
      AMD LTD TO CLD VIS AND WIND 3106/3115=

USA.gov is the U.S. government's official web portal to all federal, state and local government web resources and services.